Авиационная погода в Емельяново

СКИДКИ НА СМАРТФОНЫ!

Регион: 
Погода METAR: 
UNKL 190400Z 26003MPS 9999 SCT024CB 11/09 Q1010 R29/190060 NOSIG RMK QFE732
Время наблюдения
2022-08-19T04:00:00Z
Температура C
11.0
Точка росы
9.0
Направление ветра
260
Скорость ветра (узлы)
6
Метео видимость
6.21
Облачность
SCT
Нижняя граница облачности (футы)
2400
Явления погоды
Условия полета
VFR
Аэропорт подробнее: 
SCT – разбросанная отдельная облачность;

Скидки на навигаторы!